To NAV CANADA Home Page Login to a new session Search on AWWS site Feedback and Comments Disclaimer Vers la page française équivalente Tips FAQ What's new on the site To the Forecasts and Observations / NOTAM section To "File a Flight Plan" website Publications and other links Update of the User's profile FIC Telephone Numbers My Weather Data Folder Route Weather Data Regional Weather Data Local Weather Data To the Forecasts and Observations / NOTAM section
Request Generated 07/28/2016 at 12:24:13 UTC . Weather information available at that time is displayed.

METAR/TAF

MEDICINE HAT/AB    (show WxCam)

METAR CYXH 281200Z AUTO 00000KT 9SM CLR 15/15 A3015 RMK SLP203
DENSITY ALT 2500FT=
METAR CYXH 281100Z AUTO 00000KT 9SM CLR 15/15 A3014 RMK SLP202
DENSITY ALT 2600FT=
METAR CYXH 281000Z AUTO 00000KT 9SM CLR 15/15 A3014 RMK SLP200
DENSITY ALT 2600FT=

TAF CYXH 281141Z 2812/2824 VRB03KT P6SM FEW040 SCT250 PROB30
2812/2814 1/2SM FG
FM281600 14006KT P6SM SCT040
FM281900 12007KT P6SM BKN060 TEMPO 2820/2824 P6SM -SHRA PROB30
2820/2824 2SM TSRA BKN050CB
RMK FCST BASED ON AUTO OBS. NXT FCST BY 281800Z=
Your time UTC time
Weather data provided by Environment Canada and NAV CANADA